TimeEDT,TemperatureF,Dew PointF,Humidity,Sea Level PressureIn,VisibilityMPH,Wind Direction,Wind SpeedMPH,Gust SpeedMPH,PrecipitationIn,Events,Conditions,WindDirDegrees,DateUTC
12:53 AM,53.1,37.0,55,30.06,10.0,NW,6.9,-,N/A,,Clear,310,2013-10-24 04:53:00
1:53 AM,50.0,37.0,61,30.08,10.0,WNW,4.6,-,N/A,,Clear,300,2013-10-24 05:53:00
2:53 AM,48.0,39.0,71,30.09,10.0,WNW,3.5,-,N/A,,Clear,300,2013-10-24 06:53:00
3:53 AM,46.0,37.9,73,30.10,10.0,NNW,5.8,-,N/A,,Clear,340,2013-10-24 07:53:00
4:53 AM,46.0,37.0,71,30.10,10.0,Calm,Calm,-,N/A,,Clear,0,2013-10-24 08:53:00
5:53 AM,45.0,37.9,76,30.14,10.0,NNW,4.6,-,N/A,,Clear,330,2013-10-24 09:53:00
6:53 AM,43.0,37.0,80,30.16,10.0,North,5.8,-,N/A,,Scattered Clouds,350,2013-10-24 10:53:00
7:53 AM,43.0,37.0,80,30.17,10.0,North,3.5,-,N/A,,Scattered Clouds,350,2013-10-24 11:53:00
8:53 AM,48.9,39.0,69,30.19,10.0,North,6.9,-,N/A,,Partly Cloudy,10,2013-10-24 12:53:00
9:53 AM,55.0,37.9,53,30.21,10.0,NNE,4.6,-,N/A,,Partly Cloudy,30,2013-10-24 13:53:00
10:53 AM,57.9,36.0,44,30.22,10.0,Variable,4.6,-,N/A,,Partly Cloudy,0,2013-10-24 14:53:00
11:53 AM,61.0,35.1,38,30.22,10.0,Calm,Calm,-,N/A,,Partly Cloudy,0,2013-10-24 15:53:00
12:53 PM,63.0,36.0,37,30.20,10.0,WSW,4.6,-,N/A,,Partly Cloudy,240,2013-10-24 16:53:00
1:53 PM,66.0,37.0,34,30.17,10.0,NW,4.6,-,N/A,,Partly Cloudy,320,2013-10-24 17:53:00
2:53 PM,66.9,37.0,33,30.14,10.0,Variable,4.6,-,N/A,,Partly Cloudy,0,2013-10-24 18:53:00
3:53 PM,70.0,39.0,32,30.13,10.0,NW,5.8,-,N/A,,Partly Cloudy,310,2013-10-24 19:53:00
4:53 PM,69.1,37.9,32,30.12,10.0,SW,6.9,-,N/A,,Partly Cloudy,230,2013-10-24 20:53:00
5:53 PM,68.0,41.0,37,30.12,10.0,SW,3.5,-,N/A,,Partly Cloudy,230,2013-10-24 21:53:00
6:53 PM,64.0,44.1,48,30.14,10.0,SW,3.5,-,N/A,,Partly Cloudy,220,2013-10-24 22:53:00
7:53 PM,57.9,46.9,67,30.15,10.0,South,5.8,-,N/A,,Clear,170,2013-10-24 23:53:00
8:53 PM,57.0,48.0,72,30.17,10.0,Calm,Calm,-,N/A,,Clear,0,2013-10-25 00:53:00
9:53 PM,57.0,48.0,72,30.17,10.0,Calm,Calm,-,N/A,,Clear,0,2013-10-25 01:53:00
10:53 PM,54.0,48.0,80,30.18,10.0,Calm,Calm,-,N/A,,Clear,0,2013-10-25 02:53:00
11:53 PM,55.0,48.0,77,30.19,10.0,Calm,Calm,-,N/A,,Clear,0,2013-10-25 03:53:00